Time;durP1;ratioP1;P1;durP2;ratioP2;P2;SDS_P1;SDS_P2;PMS_P1;PMS_P2;Temp;Humidity;BMP_temperature;BMP_pressure;BME280_temperature;BME280_humidity;BME280_pressure;Samples;Min_cycle;Max_cycle;Signal;HPM_P1;HPM_P2
2023/07/30 00:01:15;;;;;;;15.07;5.13;;;16.00;99.90;;;;;;5020151;28;20053;-45
2023/07/30 00:03:41;;;;;;;9.07;4.85;;;15.90;99.90;;;;;;5006431;28;20033;-44
2023/07/30 00:06:06;;;;;;;13.25;4.82;;;15.90;99.90;;;;;;5006369;28;20100;-44
2023/07/30 00:08:32;;;;;;;12.07;4.82;;;15.90;99.90;;;;;;5007100;28;20416;-46
2023/07/30 00:10:58;;;;;;;13.40;5.07;;;15.80;99.90;;;;;;5006850;28;20050;-46
2023/07/30 00:13:24;;;;;;;12.15;5.05;;;15.80;99.90;;;;;;5020762;28;20041;-44
2023/07/30 00:15:50;;;;;;;10.20;4.75;;;15.80;99.90;;;;;;5005884;28;20046;-46
2023/07/30 00:18:16;;;;;;;14.45;4.72;;;15.70;99.90;;;;;;5006209;28;20045;-46
2023/07/30 00:20:42;;;;;;;11.10;4.90;;;15.70;99.90;;;;;;5006661;28;20124;-45
2023/07/30 00:23:07;;;;;;;12.80;5.38;;;15.80;99.90;;;;;;5006208;28;20125;-45
2023/07/30 00:25:33;;;;;;;13.77;5.03;;;15.80;99.90;;;;;;5009357;28;20656;-45
2023/07/30 00:27:59;;;;;;;11.98;4.82;;;15.70;99.90;;;;;;5020820;28;20034;-45
2023/07/30 00:30:24;;;;;;;10.32;5.13;;;15.70;99.90;;;;;;5024676;28;20053;-44
2023/07/30 00:32:50;;;;;;;13.57;5.32;;;15.60;99.90;;;;;;5025038;28;20199;-45
2023/07/30 00:35:16;;;;;;;11.43;5.00;;;15.60;99.90;;;;;;5025119;28;20049;-46
2023/07/30 00:37:42;;;;;;;9.32;4.95;;;15.60;99.90;;;;;;5025434;28;20042;-46
2023/07/30 00:40:08;;;;;;;10.68;5.53;;;15.60;99.90;;;;;;5025054;28;20080;-45
2023/07/30 00:42:33;;;;;;;11.70;5.05;;;15.50;99.90;;;;;;5025275;28;20034;-44
2023/07/30 00:44:59;;;;;;;11.02;5.53;;;15.50;99.90;;;;;;5025475;28;20454;-45
2023/07/30 00:47:26;;;;;;;11.32;5.10;;;15.50;99.90;;;;;;5024859;28;20044;-44
2023/07/30 00:49:52;;;;;;;8.10;4.90;;;15.50;99.90;;;;;;5025454;28;20463;-45
2023/07/30 00:52:19;;;;;;;10.63;5.55;;;15.40;99.90;;;;;;5026446;28;20913;-46
2023/07/30 00:54:46;;;;;;;12.63;5.50;;;15.40;99.90;;;;;;5025380;28;20049;-46
2023/07/30 00:57:12;;;;;;;15.00;6.03;;;15.30;99.90;;;;;;5025100;28;20049;-46
2023/07/30 00:59:38;;;;;;;11.38;5.28;;;15.40;99.90;;;;;;5024309;28;20045;-44
2023/07/30 01:02:04;;;;;;;12.07;5.28;;;15.30;99.90;;;;;;5024972;28;20048;-45
2023/07/30 01:04:30;;;;;;;12.88;5.38;;;15.30;99.90;;;;;;5024232;28;20044;-45
2023/07/30 01:06:56;;;;;;;11.65;5.90;;;15.30;99.90;;;;;;5024783;28;20539;-45
2023/07/30 01:09:22;;;;;;;14.80;5.80;;;15.30;99.90;;;;;;5025418;28;20106;-45
2023/07/30 01:11:48;;;;;;;16.48;5.72;;;15.20;99.90;;;;;;5058069;23;20555;-46
2023/07/30 01:14:15;;;;;;;10.77;5.18;;;15.20;99.90;;;;;;4960993;28;20047;-45
2023/07/30 01:16:41;;;;;;;11.75;5.43;;;15.20;99.90;;;;;;4971233;28;20086;-45
2023/07/30 01:19:07;;;;;;;13.40;5.95;;;15.30;99.90;;;;;;4947338;28;20050;-45
2023/07/30 01:21:36;;;;;;;12.13;5.68;;;15.10;99.90;;;;;;4947976;28;20035;-45
2023/07/30 01:24:02;;;;;;;11.68;6.00;;;15.10;99.90;;;;;;4947565;28;20129;-44
2023/07/30 01:26:43;;;;;;;11.77;5.93;;;15.00;99.90;;;;;;4946305;29;20058;-47
2023/07/30 01:29:21;;;;;;;15.38;5.82;;;15.10;99.90;;;;;;4947926;28;20058;-46
2023/07/30 01:31:54;;;;;;;14.32;5.75;;;15.00;99.90;;;;;;4947196;28;20048;-46
2023/07/30 01:34:20;;;;;;;15.15;5.95;;;15.00;99.90;;;;;;4947502;28;20146;-44
2023/07/30 01:36:48;;;;;;;15.13;6.07;;;15.10;99.90;;;;;;4948116;28;20559;-44
2023/07/30 01:39:15;;;;;;;14.13;6.22;;;15.00;99.90;;;;;;4947087;28;20142;-45
2023/07/30 01:41:41;;;;;;;14.98;6.30;;;15.00;99.90;;;;;;4955899;28;20038;-45
2023/07/30 01:44:06;;;;;;;14.95;6.00;;;15.00;99.90;;;;;;4986479;28;20117;-45
2023/07/30 01:46:32;;;;;;;15.77;5.88;;;15.10;99.90;;;;;;4986369;28;20636;-45
2023/07/30 01:48:58;;;;;;;16.77;6.25;;;15.00;99.90;;;;;;4985360;28;20129;-45
2023/07/30 01:51:23;;;;;;;15.98;5.97;;;15.00;99.90;;;;;;4986198;28;20062;-48
2023/07/30 01:53:49;;;;;;;16.88;6.47;;;15.00;99.90;;;;;;4986458;28;20042;-45
2023/07/30 01:56:15;;;;;;;18.35;6.30;;;15.10;99.90;;;;;;4985834;28;20657;-45
2023/07/30 01:58:40;;;;;;;17.73;6.47;;;15.00;99.90;;;;;;4986353;28;20097;-46
2023/07/30 02:01:06;;;;;;;18.00;6.35;;;15.10;99.90;;;;;;4986076;28;20097;-45
2023/07/30 02:03:31;;;;;;;19.77;6.38;;;15.10;99.90;;;;;;4985539;28;20050;-44
2023/07/30 02:05:57;;;;;;;18.25;5.95;;;15.10;99.90;;;;;;4985269;28;20046;-46
2023/07/30 02:08:23;;;;;;;19.92;6.25;;;15.10;99.90;;;;;;4986539;28;20042;-45
2023/07/30 02:10:58;;;;;;;16.10;6.07;;;15.20;99.90;;;;;;4986009;28;20093;-44
2023/07/30 02:13:25;;;;;;;15.23;6.10;;;15.20;99.90;;;;;;4988533;28;20133;-45
2023/07/30 02:15:50;;;;;;;16.90;6.13;;;15.20;99.90;;;;;;4962046;28;20059;-45
2023/07/30 02:18:16;;;;;;;19.52;6.20;;;15.20;99.90;;;;;;4950442;28;20163;-45
2023/07/30 02:20:41;;;;;;;18.17;6.28;;;15.20;99.90;;;;;;4950068;28;20091;-46
2023/07/30 02:23:08;;;;;;;19.27;6.35;;;15.20;99.90;;;;;;4951743;28;20051;-45
2023/07/30 02:25:34;;;;;;;18.35;6.75;;;15.30;99.90;;;;;;4976605;28;20050;-44
2023/07/30 02:28:00;;;;;;;15.93;5.88;;;15.30;99.90;;;;;;4969786;28;20046;-44
2023/07/30 02:30:26;;;;;;;16.58;5.75;;;15.30;99.90;;;;;;4976951;28;20062;-45
2023/07/30 02:32:52;;;;;;;15.68;5.97;;;15.50;99.90;;;;;;4987594;28;20053;-46
2023/07/30 02:35:18;;;;;;;19.85;6.00;;;15.40;99.90;;;;;;4989324;28;20054;-45
2023/07/30 02:37:43;;;;;;;16.30;6.00;;;15.30;99.90;;;;;;4989160;28;20042;-45
2023/07/30 02:40:10;;;;;;;20.42;6.25;;;15.30;99.90;;;;;;4989666;28;20496;-44
2023/07/30 02:42:35;;;;;;;14.60;5.50;;;15.30;99.90;;;;;;4985041;28;20124;-44
2023/07/30 02:45:01;;;;;;;18.83;5.80;;;15.30;99.90;;;;;;4969259;28;20147;-45
2023/07/30 02:47:26;;;;;;;18.00;5.72;;;15.20;99.90;;;;;;4969601;28;20050;-45
2023/07/30 02:49:52;;;;;;;22.15;6.00;;;15.30;99.90;;;;;;4969874;28;20134;-45
2023/07/30 02:52:18;;;;;;;18.92;6.20;;;15.20;99.90;;;;;;4969726;28;20113;-44
2023/07/30 02:54:43;;;;;;;18.23;6.10;;;15.30;99.90;;;;;;4968601;28;20223;-45
2023/07/30 02:57:10;;;;;;;18.25;6.13;;;15.30;99.90;;;;;;4968706;28;20437;-44
2023/07/30 02:59:37;;;;;;;15.13;5.80;;;15.20;99.90;;;;;;4968816;28;20039;-44
2023/07/30 03:02:05;;;;;;;21.25;6.55;;;15.20;99.90;;;;;;4967892;28;20051;-45
2023/07/30 03:04:31;;;;;;;15.27;5.90;;;15.20;99.90;;;;;;4969146;28;20050;-46
2023/07/30 03:06:56;;;;;;;16.08;6.43;;;15.10;99.90;;;;;;4969339;28;20253;-45
2023/07/30 03:09:22;;;;;;;18.23;6.47;;;15.10;99.90;;;;;;4968942;28;20129;-45
2023/07/30 03:11:49;;;;;;;18.63;5.72;;;15.00;99.90;;;;;;4968978;28;20153;-45
2023/07/30 03:14:15;;;;;;;14.63;6.13;;;14.90;99.90;;;;;;4964483;28;20054;-45
2023/07/30 03:16:40;;;;;;;18.23;5.65;;;14.90;99.90;;;;;;4958637;28;20043;-45
2023/07/30 03:19:06;;;;;;;23.33;5.75;;;14.90;99.90;;;;;;4948595;28;20054;-44
2023/07/30 03:21:32;;;;;;;18.02;6.07;;;14.90;99.90;;;;;;4949680;28;20044;-45
2023/07/30 03:23:57;;;;;;;14.95;5.60;;;14.80;99.90;;;;;;4949179;28;20046;-45
2023/07/30 03:26:24;;;;;;;14.25;5.85;;;14.90;99.90;;;;;;4949795;28;20051;-44
2023/07/30 03:28:50;;;;;;;17.17;5.78;;;14.80;99.90;;;;;;4948325;29;20062;-44
2023/07/30 03:31:15;;;;;;;20.10;6.05;;;14.80;99.90;;;;;;4976836;28;20050;-45
2023/07/30 03:33:43;;;;;;;15.63;5.00;;;14.80;99.90;;;;;;4987850;28;20034;-44
2023/07/30 03:36:10;;;;;;;15.80;5.82;;;14.70;99.90;;;;;;4988450;28;20121;-44
2023/07/30 03:38:36;;;;;;;15.10;6.00;;;14.70;99.90;;;;;;4988053;28;20042;-44
2023/07/30 03:41:04;;;;;;;17.25;5.45;;;14.70;99.90;;;;;;4988188;28;20620;-44
2023/07/30 03:43:29;;;;;;;20.48;5.40;;;14.70;99.90;;;;;;4987992;28;20477;-44
2023/07/30 03:45:55;;;;;;;16.45;5.13;;;14.70;99.90;;;;;;4988677;28;20076;-44
2023/07/30 03:48:20;;;;;;;14.07;5.38;;;14.70;99.90;;;;;;4986945;28;20390;-45
2023/07/30 03:50:46;;;;;;;13.23;5.15;;;14.80;99.90;;;;;;4987432;28;20504;-46
2023/07/30 03:53:12;;;;;;;13.75;4.72;;;14.70;99.90;;;;;;4987799;28;20444;-44
2023/07/30 03:55:38;;;;;;;14.55;4.75;;;14.80;99.90;;;;;;4987928;28;20165;-44
2023/07/30 03:58:03;;;;;;;15.10;5.15;;;14.70;99.90;;;;;;4987811;28;20481;-45
2023/07/30 04:00:29;;;;;;;13.23;4.85;;;14.70;99.90;;;;;;4987949;28;20097;-44
2023/07/30 04:02:55;;;;;;;12.77;4.60;;;14.70;99.90;;;;;;4987126;28;20045;-45
2023/07/30 04:05:20;;;;;;;15.90;5.07;;;14.60;99.90;;;;;;4987879;28;20042;-44
2023/07/30 04:07:46;;;;;;;14.85;4.88;;;14.60;99.90;;;;;;4987381;28;20105;-44
2023/07/30 04:10:11;;;;;;;19.95;5.22;;;14.60;99.90;;;;;;4987906;28;20560;-44
2023/07/30 04:12:37;;;;;;;15.55;4.95;;;14.60;99.90;;;;;;4986394;28;20052;-44
2023/07/30 04:15:03;;;;;;;15.80;5.57;;;14.70;99.90;;;;;;4967456;28;20051;-45
2023/07/30 04:17:29;;;;;;;13.07;4.32;;;14.70;99.90;;;;;;4951154;28;20086;-45
2023/07/30 04:19:54;;;;;;;18.05;4.88;;;14.70;99.90;;;;;;4947678;29;20049;-45
2023/07/30 04:22:20;;;;;;;15.05;5.00;;;14.60;99.90;;;;;;4948521;28;20051;-45
2023/07/30 04:24:45;;;;;;;15.90;4.53;;;14.60;99.90;;;;;;4948626;28;20039;-45
2023/07/30 04:27:11;;;;;;;15.40;4.60;;;14.60;99.90;;;;;;4948791;28;20094;-45
2023/07/30 04:29:36;;;;;;;16.13;4.97;;;14.70;99.90;;;;;;4948996;28;20054;-44
2023/07/30 04:32:02;;;;;;;16.70;4.65;;;14.60;99.90;;;;;;4947449;28;20430;-47
2023/07/30 04:34:28;;;;;;;11.50;4.40;;;14.70;99.90;;;;;;4948741;28;20070;-45
2023/07/30 04:36:53;;;;;;;12.95;4.35;;;14.70;99.90;;;;;;4948309;28;20047;-44
2023/07/30 04:39:19;;;;;;;14.15;4.50;;;14.60;99.90;;;;;;4948799;28;20123;-45
2023/07/30 04:41:45;;;;;;;13.10;4.38;;;14.60;99.90;;;;;;4947598;28;20043;-44
2023/07/30 04:44:10;;;;;;;17.67;4.55;;;14.60;99.90;;;;;;4948075;28;20050;-46
2023/07/30 04:46:36;;;;;;;17.63;4.57;;;14.70;99.90;;;;;;4948428;28;20390;-45
2023/07/30 04:49:04;;;;;;;13.85;3.88;;;14.70;99.90;;;;;;4947778;28;20137;-45
2023/07/30 04:51:29;;;;;;;13.38;4.00;;;14.70;99.90;;;;;;4948345;28;20046;-45
2023/07/30 04:53:55;;;;;;;16.20;4.32;;;14.70;99.90;;;;;;4947212;29;20051;-44
2023/07/30 04:56:21;;;;;;;18.40;4.50;;;14.80;99.90;;;;;;4947853;28;20047;-45
2023/07/30 04:58:46;;;;;;;12.80;4.45;;;14.80;99.90;;;;;;4946276;28;20170;-45
2023/07/30 05:01:12;;;;;;;18.55;4.45;;;14.90;99.90;;;;;;4947183;28;20694;-44
2023/07/30 05:03:38;;;;;;;14.23;4.70;;;14.90;99.90;;;;;;4953438;28;20404;-45
2023/07/30 05:06:03;;;;;;;16.17;4.35;;;14.90;99.90;;;;;;4985598;28;20050;-45
2023/07/30 05:08:29;;;;;;;14.27;4.45;;;15.20;99.90;;;;;;4987345;28;20140;-47
2023/07/30 05:10:54;;;;;;;13.05;4.13;;;15.00;99.90;;;;;;4985677;28;20050;-45
2023/07/30 05:13:20;;;;;;;15.38;4.43;;;15.10;99.90;;;;;;4985982;28;20535;-45
2023/07/30 05:15:46;;;;;;;14.68;4.20;;;15.10;99.90;;;;;;4957070;28;20146;-45
2023/07/30 05:18:13;;;;;;;14.35;4.18;;;15.10;99.90;;;;;;4947176;28;20070;-45
2023/07/30 05:20:39;;;;;;;15.80;4.45;;;15.20;99.90;;;;;;4947680;28;20040;-45
2023/07/30 05:23:06;;;;;;;16.13;4.63;;;15.30;99.90;;;;;;4947433;28;20123;-48
2023/07/30 05:25:32;;;;;;;12.80;4.28;;;15.40;99.90;;;;;;4948151;28;20047;-46
2023/07/30 05:27:57;;;;;;;13.05;4.22;;;15.40;99.90;;;;;;4948129;28;20043;-45
2023/07/30 05:30:23;;;;;;;12.88;4.45;;;15.40;99.90;;;;;;4947036;28;20405;-45
2023/07/30 05:32:49;;;;;;;21.35;5.28;;;15.40;99.90;;;;;;4946697;29;20553;-46
2023/07/30 05:35:15;;;;;;;20.88;5.05;;;15.40;99.90;;;;;;4947819;28;20055;-44
2023/07/30 05:37:40;;;;;;;15.55;4.45;;;15.40;99.90;;;;;;4947171;28;20043;-44
2023/07/30 05:40:07;;;;;;;16.30;4.72;;;15.50;99.90;;;;;;4947397;28;20061;-45
2023/07/30 05:42:32;;;;;;;14.65;4.10;;;15.50;99.90;;;;;;4948186;28;20090;-45
2023/07/30 05:44:58;;;;;;;18.52;4.88;;;15.60;99.90;;;;;;4946227;29;20442;-46
2023/07/30 05:47:23;;;;;;;16.42;4.50;;;15.70;99.90;;;;;;4947764;28;20047;-45
2023/07/30 05:49:49;;;;;;;21.50;4.75;;;15.60;99.90;;;;;;4951602;28;20409;-45
2023/07/30 05:52:15;;;;;;;13.90;4.50;;;15.60;99.90;;;;;;4951271;28;20047;-45
2023/07/30 05:54:40;;;;;;;18.75;4.60;;;15.60;99.90;;;;;;4951371;28;20093;-45
2023/07/30 05:57:06;;;;;;;17.38;5.30;;;15.80;99.90;;;;;;4951413;28;20039;-46
2023/07/30 05:59:31;;;;;;;15.57;4.70;;;15.80;99.90;;;;;;4951213;28;20038;-45
2023/07/30 06:01:59;;;;;;;19.73;5.72;;;15.80;99.90;;;;;;4932742;29;20086;-45
2023/07/30 06:04:24;;;;;;;16.85;5.28;;;15.90;99.90;;;;;;4950971;28;20438;-45
2023/07/30 06:06:50;;;;;;;14.75;4.43;;;15.90;99.90;;;;;;4951491;28;20051;-45
2023/07/30 06:09:16;;;;;;;17.48;5.22;;;15.90;99.90;;;;;;4951068;28;20534;-46
2023/07/30 06:11:41;;;;;;;20.15;4.57;;;16.00;99.90;;;;;;4951115;28;20055;-45
2023/07/30 06:14:07;;;;;;;17.15;4.97;;;16.00;99.90;;;;;;4953117;28;20038;-48
2023/07/30 06:16:32;;;;;;;13.77;4.30;;;16.30;99.90;;;;;;4958972;28;20089;-45
2023/07/30 06:18:58;;;;;;;14.77;4.20;;;16.20;99.90;;;;;;4949451;29;20086;-45
2023/07/30 06:21:24;;;;;;;14.45;4.20;;;16.30;99.90;;;;;;4955140;28;20409;-44
2023/07/30 06:23:49;;;;;;;12.80;4.63;;;16.40;99.90;;;;;;4982615;28;20069;-45
2023/07/30 06:26:15;;;;;;;16.95;4.88;;;16.30;99.90;;;;;;4988618;28;20054;-45
2023/07/30 06:28:40;;;;;;;19.33;4.72;;;16.40;99.90;;;;;;4989126;28;20030;-44
2023/07/30 06:31:06;;;;;;;13.80;4.45;;;16.40;99.90;;;;;;4988690;28;20618;-45
2023/07/30 06:33:32;;;;;;;16.48;4.68;;;16.50;99.90;;;;;;4988154;28;20468;-45
2023/07/30 06:35:57;;;;;;;19.33;4.78;;;16.40;99.90;;;;;;4989115;28;20785;-45
2023/07/30 06:38:23;;;;;;;20.20;4.85;;;16.50;99.90;;;;;;4987050;28;20085;-46
2023/07/30 06:40:48;;;;;;;11.55;4.20;;;16.50;99.90;;;;;;4988572;28;20041;-45
2023/07/30 06:43:14;;;;;;;17.38;5.10;;;16.40;99.90;;;;;;4988460;28;20097;-45
2023/07/30 06:45:40;;;;;;;13.25;4.72;;;16.50;99.90;;;;;;4988393;28;20053;-45
2023/07/30 06:48:05;;;;;;;15.40;5.47;;;16.40;99.90;;;;;;4983174;28;20058;-45
2023/07/30 06:50:31;;;;;;;12.82;4.47;;;16.60;99.90;;;;;;4969688;28;20039;-46
2023/07/30 06:52:56;;;;;;;15.18;4.63;;;16.60;99.90;;;;;;4971631;28;20058;-45
2023/07/30 06:55:22;;;;;;;13.82;4.93;;;16.60;99.90;;;;;;4983688;28;20178;-45
2023/07/30 06:57:48;;;;;;;18.98;4.45;;;16.50;99.90;;;;;;4988705;28;20082;-45
2023/07/30 07:00:18;;;;;;;20.45;4.18;;;16.60;99.90;;;;;;4988887;28;20397;-44
2023/07/30 07:02:45;;;;;;;15.45;4.70;;;16.60;99.90;;;;;;4987102;28;20046;-46
2023/07/30 07:05:10;;;;;;;15.48;4.95;;;16.60;99.90;;;;;;4969297;28;20050;-45
2023/07/30 07:07:36;;;;;;;20.25;5.53;;;16.60;99.90;;;;;;4967759;28;20080;-45
2023/07/30 07:10:01;;;;;;;17.33;5.43;;;16.60;99.90;;;;;;4967249;28;20363;-48
2023/07/30 07:12:27;;;;;;;15.27;4.35;;;16.50;99.90;;;;;;4963074;28;20058;-45
2023/07/30 07:14:53;;;;;;;16.73;5.43;;;16.60;99.90;;;;;;4962333;28;20053;-45
2023/07/30 07:17:18;;;;;;;16.15;5.20;;;16.60;99.90;;;;;;4970988;28;20074;-45
2023/07/30 07:19:44;;;;;;;17.30;4.63;;;16.70;99.90;;;;;;4986887;28;20078;-45
2023/07/30 07:22:09;;;;;;;16.20;4.60;;;16.70;99.90;;;;;;4985811;28;20392;-47
2023/07/30 07:24:35;;;;;;;18.65;5.22;;;16.90;99.90;;;;;;4969150;28;20137;-46
2023/07/30 07:27:01;;;;;;;14.93;4.53;;;16.90;99.90;;;;;;4968925;28;20050;-45
2023/07/30 07:29:26;;;;;;;17.90;5.00;;;16.90;99.90;;;;;;4969346;28;20458;-46
2023/07/30 07:31:53;;;;;;;17.65;4.50;;;17.00;99.90;;;;;;4970441;28;20045;-46
2023/07/30 07:34:19;;;;;;;17.52;4.82;;;17.10;99.90;;;;;;4980187;28;20093;-46
2023/07/30 07:36:44;;;;;;;13.63;4.70;;;17.20;99.90;;;;;;4967298;28;20494;-45
2023/07/30 07:39:11;;;;;;;17.95;5.43;;;17.30;99.90;;;;;;4968376;28;20397;-45
2023/07/30 07:41:37;;;;;;;17.42;5.30;;;17.40;99.90;;;;;;4976948;28;20047;-47
2023/07/30 07:44:03;;;;;;;18.92;5.03;;;17.60;99.90;;;;;;4974980;28;20050;-45
2023/07/30 07:46:28;;;;;;;16.17;4.65;;;17.50;99.90;;;;;;4980629;28;20065;-46
2023/07/30 07:48:54;;;;;;;18.88;4.85;;;17.50;99.90;;;;;;4984417;28;20442;-46
2023/07/30 07:51:20;;;;;;;14.15;4.60;;;17.60;99.90;;;;;;4977403;28;20051;-45
2023/07/30 07:53:45;;;;;;;14.00;4.00;;;17.70;99.90;;;;;;4968323;28;20090;-45
2023/07/30 07:56:11;;;;;;;14.55;3.92;;;17.80;99.90;;;;;;4968929;28;20042;-46
2023/07/30 07:58:37;;;;;;;11.95;3.92;;;18.00;99.90;;;;;;4968709;28;20450;-45
2023/07/30 08:01:03;;;;;;;10.85;3.70;;;18.00;99.90;;;;;;4968062;28;20550;-45
2023/07/30 08:03:29;;;;;;;13.93;3.65;;;18.10;99.90;;;;;;4967657;28;20086;-45
2023/07/30 08:05:54;;;;;;;17.33;4.30;;;18.20;99.90;;;;;;4966828;28;20078;-45
2023/07/30 08:08:20;;;;;;;16.55;3.70;;;18.30;99.90;;;;;;4968103;28;20468;-46
2023/07/30 08:10:47;;;;;;;10.82;2.80;;;18.40;99.90;;;;;;4967541;28;20078;-46
2023/07/30 08:13:14;;;;;;;12.60;3.25;;;18.70;99.90;;;;;;4968445;28;20069;-45
2023/07/30 08:15:39;;;;;;;10.38;2.85;;;19.10;99.90;;;;;;4960907;28;20042;-46
2023/07/30 08:18:05;;;;;;;11.15;2.83;;;19.20;99.90;;;;;;4947707;28;20493;-45
2023/07/30 08:20:31;;;;;;;15.13;2.85;;;19.20;99.90;;;;;;4948742;28;20089;-45
2023/07/30 08:22:56;;;;;;;12.77;3.30;;;19.10;99.90;;;;;;4959797;28;20359;-45
2023/07/30 08:25:22;;;;;;;13.75;2.42;;;19.40;99.90;;;;;;4979314;28;20092;-46
2023/07/30 08:27:47;;;;;;;10.07;2.63;;;19.60;99.90;;;;;;4987244;28;20097;-45
2023/07/30 08:30:13;;;;;;;8.60;2.15;;;19.60;99.90;;;;;;4981723;28;20054;-46
2023/07/30 08:32:39;;;;;;;10.18;2.47;;;19.70;99.90;;;;;;4966874;28;20055;-45
2023/07/30 08:35:05;;;;;;;9.65;2.28;;;19.70;99.90;;;;;;4966607;28;20051;-46
2023/07/30 08:37:30;;;;;;;11.35;2.67;;;19.70;99.90;;;;;;4967969;28;20062;-46
2023/07/30 08:39:56;;;;;;;10.00;2.65;;;19.80;99.90;;;;;;4984218;28;20424;-45
2023/07/30 08:42:22;;;;;;;11.98;2.83;;;19.80;99.90;;;;;;4987027;28;20105;-45
2023/07/30 08:44:48;;;;;;;10.05;2.67;;;19.80;99.90;;;;;;4987501;28;20045;-45
2023/07/30 08:47:14;;;;;;;15.77;3.20;;;19.80;99.90;;;;;;4987034;28;20043;-45
2023/07/30 08:49:40;;;;;;;13.55;2.88;;;19.60;99.90;;;;;;4987343;28;20555;-46
2023/07/30 08:52:08;;;;;;;15.50;2.83;;;19.40;99.90;;;;;;4985691;28;20046;-46
2023/07/30 08:54:36;;;;;;;13.60;3.40;;;19.30;99.90;;;;;;4987243;28;20035;-45
2023/07/30 08:57:02;;;;;;;13.75;2.83;;;19.10;99.90;;;;;;4974899;28;20039;-46
2023/07/30 08:59:33;;;;;;;11.60;3.00;;;18.80;99.90;;;;;;4967133;28;20050;-45
2023/07/30 09:02:00;;;;;;;11.18;3.00;;;18.30;99.90;;;;;;4966840;28;20485;-45
2023/07/30 09:04:29;;;;;;;11.32;2.80;;;18.00;99.90;;;;;;4967667;28;20047;-46
2023/07/30 09:06:55;;;;;;;10.98;3.10;;;17.70;99.90;;;;;;4966104;28;20053;-46
2023/07/30 09:09:21;;;;;;;8.73;2.70;;;17.60;99.90;;;;;;4966735;28;20054;-45
2023/07/30 09:11:54;;;;;;;10.32;2.40;;;17.50;99.90;;;;;;4965035;28;20062;-45
2023/07/30 09:14:21;;;;;;;10.68;2.50;;;17.40;99.90;;;;;;4961042;28;20051;-45
2023/07/30 09:16:46;;;;;;;7.07;2.17;;;17.20;99.90;;;;;;4954382;28;20190;-45
2023/07/30 09:19:17;;;;;;;5.82;2.10;;;17.10;99.90;;;;;;4948316;28;20122;-45
2023/07/30 09:21:43;;;;;;;10.15;2.33;;;17.00;99.90;;;;;;4946663;28;20051;-45
2023/07/30 09:24:09;;;;;;;7.47;2.50;;;16.90;99.90;;;;;;4948125;28;20043;-45
2023/07/30 09:26:46;;;;;;;8.88;2.58;;;16.90;99.90;;;;;;4946737;29;20051;-46
2023/07/30 09:29:12;;;;;;;9.05;2.28;;;16.90;99.90;;;;;;4946738;29;20118;-45
2023/07/30 09:31:54;;;;;;;7.03;1.90;;;16.90;99.90;;;;;;4947299;28;20054;-46
2023/07/30 09:34:20;;;;;;;8.50;2.20;;;16.90;99.90;;;;;;4947829;28;20703;-46
2023/07/30 09:36:46;;;;;;;9.65;2.10;;;16.90;99.90;;;;;;4947698;28;20062;-45
2023/07/30 09:39:21;;;;;;;9.10;2.17;;;16.80;99.90;;;;;;4948372;28;20071;-52
2023/07/30 09:41:46;;;;;;;8.75;2.30;;;16.80;99.90;;;;;;4947952;28;20059;-45
2023/07/30 09:44:13;;;;;;;10.68;4.03;;;16.80;99.90;;;;;;4947694;28;20044;-45
2023/07/30 09:46:44;;;;;;;7.88;3.13;;;16.80;99.90;;;;;;4947268;28;20051;-45
2023/07/30 09:49:10;;;;;;;7.60;2.80;;;16.90;99.90;;;;;;4948321;28;20583;-45
2023/07/30 09:51:38;;;;;;;8.63;2.60;;;16.90;99.90;;;;;;4969236;28;20096;-45
2023/07/30 09:54:03;;;;;;;9.10;2.90;;;16.90;99.90;;;;;;4973593;28;20042;-46
2023/07/30 09:56:29;;;;;;;7.72;2.63;;;17.00;99.90;;;;;;4982840;28;20035;-46
2023/07/30 09:58:54;;;;;;;9.68;2.80;;;16.70;99.90;;;;;;4985407;28;20486;-45
2023/07/30 10:01:24;;;;;;;6.70;2.60;;;16.40;99.90;;;;;;4967808;28;20043;-46
2023/07/30 10:03:49;;;;;;;12.32;3.15;;;16.50;99.90;;;;;;4965900;28;20051;-45
2023/07/30 10:06:16;;;;;;;7.88;2.67;;;16.30;99.90;;;;;;4983657;28;20053;-46
2023/07/30 10:08:43;;;;;;;10.38;2.88;;;16.10;99.90;;;;;;4986427;28;20043;-45
2023/07/30 10:11:10;;;;;;;9.68;2.53;;;16.10;99.90;;;;;;4986439;28;20065;-45
2023/07/30 10:13:38;;;;;;;12.50;2.90;;;16.10;99.90;;;;;;4982792;28;20043;-46
2023/07/30 10:16:10;;;;;;;8.38;2.78;;;16.20;99.90;;;;;;4956859;28;20054;-46
2023/07/30 10:18:40;;;;;;;8.45;2.60;;;16.10;99.90;;;;;;4958429;28;20035;-45
2023/07/30 10:21:11;;;;;;;6.30;1.92;;;15.90;99.90;;;;;;4947547;28;20421;-47
2023/07/30 10:24:06;;;;;;;7.75;2.10;;;16.00;99.90;;;;;;4947899;28;20047;-45
2023/07/30 10:26:33;;;;;;;;;;;16.00;99.90;;;;;;4956555;28;20085;-45
2023/07/30 10:29:14;;;;;;;9.48;2.47;;;16.00;99.90;;;;;;4971316;28;19922;-45
2023/07/30 10:31:41;;;;;;;9.30;2.58;;;16.10;99.90;;;;;;4961492;28;20073;-45
2023/07/30 10:34:09;;;;;;;7.95;2.28;;;16.10;99.90;;;;;;4961465;28;20558;-45
2023/07/30 10:36:43;;;;;;;5.97;2.05;;;16.10;99.90;;;;;;4959249;28;20052;-45
2023/07/30 10:39:26;;;;;;;6.15;2.30;;;16.10;99.90;;;;;;4962117;28;20058;-46
2023/07/30 10:42:00;;;;;;;5.57;2.00;;;16.20;99.90;;;;;;4970101;28;20126;-45
2023/07/30 10:44:33;;;;;;;5.35;1.65;;;16.10;99.90;;;;;;4970554;28;20565;-46
2023/07/30 10:47:00;;;;;;;5.75;1.73;;;16.20;99.90;;;;;;4969436;28;20105;-45
2023/07/30 10:49:26;;;;;;;5.47;1.92;;;16.20;99.90;;;;;;4970255;28;20544;-45
2023/07/30 10:51:54;;;;;;;4.88;1.92;;;16.30;99.90;;;;;;4970238;28;20043;-45
2023/07/30 10:54:20;;;;;;;4.28;1.63;;;16.30;99.90;;;;;;4969523;28;20055;-44
2023/07/30 10:56:46;;;;;;;4.78;1.65;;;16.30;99.90;;;;;;4970388;28;20038;-45
2023/07/30 10:59:12;;;;;;;5.75;1.80;;;16.30;99.90;;;;;;4970015;28;20086;-46
2023/07/30 11:01:43;;;;;;;5.95;2.20;;;16.40;99.90;;;;;;4968865;28;20054;-45
2023/07/30 11:04:18;;;;;;;5.78;2.15;;;16.50;99.90;;;;;;4969754;28;20394;-46
2023/07/30 11:06:51;;;;;;;4.53;1.85;;;16.60;99.90;;;;;;4986209;28;20054;-45
2023/07/30 11:09:25;;;;;;;6.82;2.10;;;16.60;99.90;;;;;;4981907;28;20088;-45
2023/07/30 11:11:52;;;;;;;5.57;2.28;;;16.70;99.90;;;;;;4969044;28;20069;-45
2023/07/30 11:14:20;;;;;;;5.25;2.03;;;16.60;99.90;;;;;;4963229;28;20145;-45
2023/07/30 11:16:54;;;;;;;7.45;1.92;;;16.60;99.90;;;;;;4967346;28;20081;-46
2023/07/30 11:19:20;;;;;;;6.90;2.30;;;16.70;99.90;;;;;;4963061;28;20104;-45
2023/07/30 11:21:51;;;;;;;6.50;2.42;;;17.00;99.90;;;;;;4984494;28;20070;-45
2023/07/30 11:24:17;;;;;;;9.35;2.15;;;17.10;99.90;;;;;;4986975;28;20442;-45
2023/07/30 11:26:43;;;;;;;7.25;2.20;;;17.20;99.90;;;;;;4986594;28;20053;-45
2023/07/30 11:29:22;;;;;;;6.53;2.00;;;17.20;99.90;;;;;;4986343;28;20046;-45
2023/07/30 11:31:47;;;;;;;5.38;2.00;;;17.30;99.90;;;;;;4984520;28;20493;-45
2023/07/30 11:34:14;;;;;;;4.90;2.05;;;17.30;99.90;;;;;;4983255;28;20051;-45
2023/07/30 11:36:41;;;;;;;9.00;2.38;;;17.30;99.90;;;;;;4966609;28;20112;-45
2023/07/30 11:39:07;;;;;;;10.00;2.30;;;17.30;99.90;;;;;;4966817;28;20387;-45
2023/07/30 11:41:33;;;;;;;6.32;1.98;;;17.30;99.90;;;;;;4967163;28;20498;-45
2023/07/30 11:43:59;;;;;;;7.82;2.22;;;17.30;99.90;;;;;;4964244;28;20085;-45
2023/07/30 11:46:25;;;;;;;5.60;2.30;;;17.30;99.90;;;;;;4966422;28;20387;-45
2023/07/30 11:49:01;;;;;;;5.28;2.00;;;17.60;99.90;;;;;;4967104;28;20428;-45
2023/07/30 11:51:29;;;;;;;7.38;2.38;;;17.90;99.90;;;;;;4966214;28;20050;-45
2023/07/30 11:53:59;;;;;;;6.93;2.20;;;18.30;99.90;;;;;;4966882;28;20402;-49
2023/07/30 11:56:30;;;;;;;5.78;1.90;;;18.60;99.90;;;;;;4965763;28;20053;-46
2023/07/30 11:59:05;;;;;;;9.70;2.38;;;18.80;99.90;;;;;;4965819;28;20051;-45
2023/07/30 12:01:33;;;;;;;9.65;2.38;;;19.00;99.90;;;;;;4964264;28;20053;-46
2023/07/30 12:04:00;;;;;;;8.38;2.33;;;19.20;99.90;;;;;;4966023;28;20129;-45
2023/07/30 12:06:46;;;;;;;9.88;2.22;;;19.40;99.90;;;;;;4966658;28;21374;-46
2023/07/30 12:09:17;;;;;;;8.48;2.05;;;19.70;99.90;;;;;;4966457;28;20142;-43
2023/07/30 12:11:50;;;;;;;6.15;1.63;;;20.00;99.90;;;;;;4966007;28;20133;-45
2023/07/30 12:14:16;;;;;;;10.18;2.28;;;20.30;99.90;;;;;;4966765;28;20715;-43
2023/07/30 12:16:41;;;;;;;6.72;1.60;;;20.60;99.90;;;;;;4964751;28;20046;-46
2023/07/30 12:19:07;;;;;;;7.43;2.22;;;20.60;99.90;;;;;;4966316;28;20071;-43
2023/07/30 12:21:33;;;;;;;7.28;1.75;;;20.50;99.90;;;;;;4965763;28;20405;-45
2023/07/30 12:23:58;;;;;;;11.30;2.33;;;20.50;99.90;;;;;;4966222;28;20043;-43
2023/07/30 12:26:24;;;;;;;6.43;1.77;;;20.40;99.90;;;;;;4965728;28;20078;-45
2023/07/30 12:28:49;;;;;;;6.72;1.75;;;20.40;99.90;;;;;;4964891;28;20377;-44
2023/07/30 12:31:15;;;;;;;11.07;1.65;;;20.50;99.90;;;;;;4965365;28;20478;-45
2023/07/30 12:33:41;;;;;;;6.97;1.58;;;20.70;99.90;;;;;;4965148;28;20042;-43
2023/07/30 12:36:06;;;;;;;5.78;1.42;;;20.90;99.90;;;;;;4966127;28;20043;-44
2023/07/30 12:38:32;;;;;;;5.38;1.48;;;20.90;99.90;;;;;;4965663;28;20089;-43